sensor_id;sensor_type;location;lat;lon;timestamp;P1;durP1;ratioP1;P2;durP2;ratioP2
8129;SDS011;4106;52.532;13.408;2022-07-10T00:00:17;4.18;;;1.30;;
8129;SDS011;4106;52.532;13.408;2022-07-10T00:02:44;1.60;;;1.00;;
8129;SDS011;4106;52.532;13.408;2022-07-10T00:05:11;1.92;;;1.00;;
8129;SDS011;4106;52.532;13.408;2022-07-10T00:07:39;2.92;;;0.98;;
8129;SDS011;4106;52.532;13.408;2022-07-10T00:10:06;1.85;;;1.00;;
8129;SDS011;4106;52.532;13.408;2022-07-10T00:12:33;2.03;;;1.05;;
8129;SDS011;4106;52.532;13.408;2022-07-10T00:15:01;1.00;;;0.90;;
8129;SDS011;4106;52.532;13.408;2022-07-10T00:17:28;2.08;;;1.20;;
8129;SDS011;4106;52.532;13.408;2022-07-10T00:19:56;5.40;;;1.25;;
8129;SDS011;4106;52.532;13.408;2022-07-10T00:22:23;3.83;;;1.20;;
8129;SDS011;4106;52.532;13.408;2022-07-10T00:24:51;1.92;;;1.30;;
8129;SDS011;4106;52.532;13.408;2022-07-10T00:27:19;3.08;;;1.10;;
8129;SDS011;4106;52.532;13.408;2022-07-10T00:29:47;1.73;;;0.85;;
8129;SDS011;4106;52.532;13.408;2022-07-10T00:32:15;4.03;;;1.40;;
8129;SDS011;4106;52.532;13.408;2022-07-10T00:34:43;2.55;;;1.17;;
8129;SDS011;4106;52.532;13.408;2022-07-10T00:37:11;1.55;;;1.00;;
8129;SDS011;4106;52.532;13.408;2022-07-10T00:39:38;3.55;;;1.27;;
8129;SDS011;4106;52.532;13.408;2022-07-10T00:42:06;1.98;;;1.15;;
8129;SDS011;4106;52.532;13.408;2022-07-10T00:44:33;1.17;;;0.90;;
8129;SDS011;4106;52.532;13.408;2022-07-10T00:47:01;1.73;;;1.00;;
8129;SDS011;4106;52.532;13.408;2022-07-10T00:49:28;1.87;;;1.12;;
8129;SDS011;4106;52.532;13.408;2022-07-10T00:51:56;1.10;;;1.00;;
8129;SDS011;4106;52.532;13.408;2022-07-10T00:54:25;1.10;;;1.00;;
8129;SDS011;4106;52.532;13.408;2022-07-10T00:56:52;2.72;;;1.10;;
8129;SDS011;4106;52.532;13.408;2022-07-10T00:59:20;6.75;;;1.55;;
8129;SDS011;4106;52.532;13.408;2022-07-10T01:01:48;4.90;;;1.45;;
8129;SDS011;4106;52.532;13.408;2022-07-10T01:04:15;6.20;;;1.12;;
8129;SDS011;4106;52.532;13.408;2022-07-10T01:06:42;2.05;;;1.12;;
8129;SDS011;4106;52.532;13.408;2022-07-10T01:09:09;5.43;;;0.85;;
8129;SDS011;4106;52.532;13.408;2022-07-10T01:11:37;2.90;;;1.00;;
8129;SDS011;4106;52.532;13.408;2022-07-10T01:14:04;1.95;;;0.88;;
8129;SDS011;4106;52.532;13.408;2022-07-10T01:16:31;3.30;;;1.23;;
8129;SDS011;4106;52.532;13.408;2022-07-10T01:18:58;2.70;;;0.95;;
8129;SDS011;4106;52.532;13.408;2022-07-10T01:21:26;2.42;;;1.20;;
8129;SDS011;4106;52.532;13.408;2022-07-10T01:23:54;4.37;;;1.23;;
8129;SDS011;4106;52.532;13.408;2022-07-10T01:26:22;2.72;;;1.30;;
8129;SDS011;4106;52.532;13.408;2022-07-10T01:28:51;2.75;;;1.17;;
8129;SDS011;4106;52.532;13.408;2022-07-10T01:31:20;2.90;;;1.12;;
8129;SDS011;4106;52.532;13.408;2022-07-10T01:33:47;1.60;;;0.80;;
8129;SDS011;4106;52.532;13.408;2022-07-10T01:36:15;3.12;;;1.10;;
8129;SDS011;4106;52.532;13.408;2022-07-10T01:38:43;3.75;;;1.08;;
8129;SDS011;4106;52.532;13.408;2022-07-10T01:41:10;2.92;;;1.17;;
8129;SDS011;4106;52.532;13.408;2022-07-10T01:43:37;2.90;;;1.20;;
8129;SDS011;4106;52.532;13.408;2022-07-10T01:46:04;1.92;;;0.70;;
8129;SDS011;4106;52.532;13.408;2022-07-10T01:48:31;1.33;;;0.88;;
8129;SDS011;4106;52.532;13.408;2022-07-10T01:51:00;2.87;;;0.95;;
8129;SDS011;4106;52.532;13.408;2022-07-10T01:53:28;1.45;;;0.95;;
8129;SDS011;4106;52.532;13.408;2022-07-10T01:55:56;1.23;;;0.82;;
8129;SDS011;4106;52.532;13.408;2022-07-10T01:58:24;2.20;;;1.00;;
8129;SDS011;4106;52.532;13.408;2022-07-10T02:00:52;2.62;;;1.00;;
8129;SDS011;4106;52.532;13.408;2022-07-10T02:03:20;1.77;;;1.00;;
8129;SDS011;4106;52.532;13.408;2022-07-10T02:05:53;3.47;;;1.02;;
8129;SDS011;4106;52.532;13.408;2022-07-10T02:08:20;1.25;;;0.80;;
8129;SDS011;4106;52.532;13.408;2022-07-10T02:10:47;3.03;;;1.00;;
8129;SDS011;4106;52.532;13.408;2022-07-10T02:13:15;3.58;;;1.05;;
8129;SDS011;4106;52.532;13.408;2022-07-10T02:15:43;2.87;;;0.85;;
8129;SDS011;4106;52.532;13.408;2022-07-10T02:18:10;5.20;;;1.10;;
8129;SDS011;4106;52.532;13.408;2022-07-10T02:20:37;2.35;;;1.00;;
8129;SDS011;4106;52.532;13.408;2022-07-10T02:23:05;1.70;;;0.80;;
8129;SDS011;4106;52.532;13.408;2022-07-10T02:25:33;1.12;;;0.60;;
8129;SDS011;4106;52.532;13.408;2022-07-10T02:28:00;2.10;;;1.10;;
8129;SDS011;4106;52.532;13.408;2022-07-10T02:30:28;1.95;;;0.80;;
8129;SDS011;4106;52.532;13.408;2022-07-10T02:32:55;2.35;;;0.90;;
8129;SDS011;4106;52.532;13.408;2022-07-10T02:35:23;3.28;;;0.88;;
8129;SDS011;4106;52.532;13.408;2022-07-10T02:37:51;1.20;;;0.98;;
8129;SDS011;4106;52.532;13.408;2022-07-10T02:40:19;1.00;;;0.70;;
8129;SDS011;4106;52.532;13.408;2022-07-10T02:42:47;1.30;;;0.82;;
8129;SDS011;4106;52.532;13.408;2022-07-10T02:45:14;0.85;;;0.65;;
8129;SDS011;4106;52.532;13.408;2022-07-10T02:47:42;1.98;;;0.85;;
8129;SDS011;4106;52.532;13.408;2022-07-10T02:50:09;1.58;;;0.88;;
8129;SDS011;4106;52.532;13.408;2022-07-10T02:52:36;1.15;;;0.65;;
8129;SDS011;4106;52.532;13.408;2022-07-10T02:55:04;2.05;;;0.93;;
8129;SDS011;4106;52.532;13.408;2022-07-10T02:57:31;1.95;;;0.77;;
8129;SDS011;4106;52.532;13.408;2022-07-10T02:59:58;1.80;;;0.70;;
8129;SDS011;4106;52.532;13.408;2022-07-10T03:02:25;1.73;;;0.90;;
8129;SDS011;4106;52.532;13.408;2022-07-10T03:04:53;0.80;;;0.80;;
8129;SDS011;4106;52.532;13.408;2022-07-10T03:07:20;2.30;;;0.80;;
8129;SDS011;4106;52.532;13.408;2022-07-10T03:09:47;1.70;;;0.80;;
8129;SDS011;4106;52.532;13.408;2022-07-10T03:12:14;1.75;;;1.10;;
8129;SDS011;4106;52.532;13.408;2022-07-10T03:14:42;1.12;;;0.57;;
8129;SDS011;4106;52.532;13.408;2022-07-10T03:17:09;1.37;;;0.90;;
8129;SDS011;4106;52.532;13.408;2022-07-10T03:19:37;2.03;;;0.90;;
8129;SDS011;4106;52.532;13.408;2022-07-10T03:22:05;2.47;;;0.77;;
8129;SDS011;4106;52.532;13.408;2022-07-10T03:24:33;1.40;;;0.70;;
8129;SDS011;4106;52.532;13.408;2022-07-10T03:27:01;1.42;;;0.60;;
8129;SDS011;4106;52.532;13.408;2022-07-10T03:29:29;2.22;;;0.82;;
8129;SDS011;4106;52.532;13.408;2022-07-10T03:31:57;1.40;;;0.80;;
8129;SDS011;4106;52.532;13.408;2022-07-10T03:34:24;2.33;;;0.85;;
8129;SDS011;4106;52.532;13.408;2022-07-10T03:36:51;1.87;;;0.77;;
8129;SDS011;4106;52.532;13.408;2022-07-10T03:39:18;1.33;;;0.73;;
8129;SDS011;4106;52.532;13.408;2022-07-10T03:41:46;2.35;;;0.80;;
8129;SDS011;4106;52.532;13.408;2022-07-10T03:44:13;1.00;;;0.75;;
8129;SDS011;4106;52.532;13.408;2022-07-10T03:46:41;0.93;;;0.73;;
8129;SDS011;4106;52.532;13.408;2022-07-10T03:49:09;1.92;;;0.70;;
8129;SDS011;4106;52.532;13.408;2022-07-10T03:51:37;0.85;;;0.52;;
8129;SDS011;4106;52.532;13.408;2022-07-10T03:54:05;0.90;;;0.75;;
8129;SDS011;4106;52.532;13.408;2022-07-10T03:56:33;1.40;;;0.80;;
8129;SDS011;4106;52.532;13.408;2022-07-10T03:59:06;0.90;;;0.70;;
8129;SDS011;4106;52.532;13.408;2022-07-10T04:01:34;1.10;;;0.80;;
8129;SDS011;4106;52.532;13.408;2022-07-10T04:04:01;2.15;;;0.90;;
8129;SDS011;4106;52.532;13.408;2022-07-10T04:06:28;1.58;;;0.70;;
8129;SDS011;4106;52.532;13.408;2022-07-10T04:08:56;1.62;;;0.60;;
8129;SDS011;4106;52.532;13.408;2022-07-10T04:11:23;4.47;;;0.88;;
8129;SDS011;4106;52.532;13.408;2022-07-10T04:13:50;1.23;;;0.75;;
8129;SDS011;4106;52.532;13.408;2022-07-10T04:16:17;1.83;;;0.95;;
8129;SDS011;4106;52.532;13.408;2022-07-10T04:18:44;1.23;;;0.50;;
8129;SDS011;4106;52.532;13.408;2022-07-10T04:21:12;0.73;;;0.60;;
8129;SDS011;4106;52.532;13.408;2022-07-10T04:23:39;1.90;;;0.70;;
8129;SDS011;4106;52.532;13.408;2022-07-10T04:26:06;0.60;;;0.60;;
8129;SDS011;4106;52.532;13.408;2022-07-10T04:28:33;1.73;;;0.95;;
8129;SDS011;4106;52.532;13.408;2022-07-10T04:31:00;0.93;;;0.62;;
8129;SDS011;4106;52.532;13.408;2022-07-10T04:33:28;1.42;;;0.90;;
8129;SDS011;4106;52.532;13.408;2022-07-10T04:35:55;1.75;;;0.82;;
8129;SDS011;4106;52.532;13.408;2022-07-10T04:38:22;1.33;;;0.80;;
8129;SDS011;4106;52.532;13.408;2022-07-10T04:40:49;1.67;;;0.80;;
8129;SDS011;4106;52.532;13.408;2022-07-10T04:43:16;2.37;;;1.12;;
8129;SDS011;4106;52.532;13.408;2022-07-10T04:45:44;0.68;;;0.68;;
8129;SDS011;4106;52.532;13.408;2022-07-10T04:48:12;1.92;;;1.00;;
8129;SDS011;4106;52.532;13.408;2022-07-10T04:50:40;0.90;;;0.80;;
8129;SDS011;4106;52.532;13.408;2022-07-10T04:53:08;0.82;;;0.75;;
8129;SDS011;4106;52.532;13.408;2022-07-10T04:55:36;2.35;;;1.00;;
8129;SDS011;4106;52.532;13.408;2022-07-10T04:58:03;2.62;;;0.80;;
8129;SDS011;4106;52.532;13.408;2022-07-10T05:00:30;1.42;;;0.70;;
8129;SDS011;4106;52.532;13.408;2022-07-10T05:02:57;1.30;;;0.85;;
8129;SDS011;4106;52.532;13.408;2022-07-10T05:05:24;2.00;;;0.90;;
8129;SDS011;4106;52.532;13.408;2022-07-10T05:07:52;1.92;;;1.00;;
8129;SDS011;4106;52.532;13.408;2022-07-10T05:10:19;2.20;;;0.90;;
8129;SDS011;4106;52.532;13.408;2022-07-10T05:12:46;1.50;;;0.82;;
8129;SDS011;4106;52.532;13.408;2022-07-10T05:15:13;1.98;;;0.65;;
8129;SDS011;4106;52.532;13.408;2022-07-10T05:17:41;1.17;;;0.80;;
8129;SDS011;4106;52.532;13.408;2022-07-10T05:20:09;0.60;;;0.60;;
8129;SDS011;4106;52.532;13.408;2022-07-10T05:22:38;1.20;;;0.80;;
8129;SDS011;4106;52.532;13.408;2022-07-10T05:25:06;2.45;;;0.90;;
8129;SDS011;4106;52.532;13.408;2022-07-10T05:27:33;2.22;;;0.93;;
8129;SDS011;4106;52.532;13.408;2022-07-10T05:30:00;2.65;;;0.95;;
8129;SDS011;4106;52.532;13.408;2022-07-10T05:32:28;1.12;;;0.70;;
8129;SDS011;4106;52.532;13.408;2022-07-10T05:34:57;2.50;;;0.95;;
8129;SDS011;4106;52.532;13.408;2022-07-10T05:37:24;3.12;;;0.70;;
8129;SDS011;4106;52.532;13.408;2022-07-10T05:39:51;2.00;;;0.85;;
8129;SDS011;4106;52.532;13.408;2022-07-10T05:42:18;2.08;;;1.00;;
8129;SDS011;4106;52.532;13.408;2022-07-10T05:44:45;0.93;;;0.82;;
8129;SDS011;4106;52.532;13.408;2022-07-10T05:47:12;1.85;;;0.98;;
8129;SDS011;4106;52.532;13.408;2022-07-10T05:49:40;0.82;;;0.82;;
8129;SDS011;4106;52.532;13.408;2022-07-10T05:52:08;1.92;;;0.93;;
8129;SDS011;4106;52.532;13.408;2022-07-10T05:54:35;2.17;;;0.90;;
8129;SDS011;4106;52.532;13.408;2022-07-10T05:57:04;1.25;;;0.95;;
8129;SDS011;4106;52.532;13.408;2022-07-10T05:59:33;1.62;;;1.00;;
8129;SDS011;4106;52.532;13.408;2022-07-10T06:02:00;2.95;;;1.12;;
8129;SDS011;4106;52.532;13.408;2022-07-10T06:04:27;0.70;;;0.70;;
8129;SDS011;4106;52.532;13.408;2022-07-10T06:06:54;2.08;;;0.80;;
8129;SDS011;4106;52.532;13.408;2022-07-10T06:09:21;1.27;;;0.82;;
8129;SDS011;4106;52.532;13.408;2022-07-10T06:11:48;0.85;;;0.82;;
8129;SDS011;4106;52.532;13.408;2022-07-10T06:14:17;2.35;;;0.88;;
8129;SDS011;4106;52.532;13.408;2022-07-10T06:16:44;2.30;;;1.00;;
8129;SDS011;4106;52.532;13.408;2022-07-10T06:19:11;1.73;;;0.98;;
8129;SDS011;4106;52.532;13.408;2022-07-10T06:21:38;1.20;;;0.85;;
8129;SDS011;4106;52.532;13.408;2022-07-10T06:24:06;1.87;;;0.90;;
8129;SDS011;4106;52.532;13.408;2022-07-10T06:26:33;1.27;;;0.98;;
8129;SDS011;4106;52.532;13.408;2022-07-10T06:29:00;3.92;;;1.12;;
8129;SDS011;4106;52.532;13.408;2022-07-10T06:31:27;2.87;;;0.85;;
8129;SDS011;4106;52.532;13.408;2022-07-10T06:33:54;1.20;;;0.82;;
8129;SDS011;4106;52.532;13.408;2022-07-10T06:36:22;1.98;;;0.90;;
8129;SDS011;4106;52.532;13.408;2022-07-10T06:38:49;3.28;;;1.08;;
8129;SDS011;4106;52.532;13.408;2022-07-10T06:41:16;2.75;;;0.88;;
8129;SDS011;4106;52.532;13.408;2022-07-10T06:43:43;3.25;;;0.90;;
8129;SDS011;4106;52.532;13.408;2022-07-10T06:46:10;2.80;;;1.08;;
8129;SDS011;4106;52.532;13.408;2022-07-10T06:48:38;3.10;;;1.27;;
8129;SDS011;4106;52.532;13.408;2022-07-10T06:51:05;1.92;;;1.02;;
8129;SDS011;4106;52.532;13.408;2022-07-10T06:53:32;3.33;;;1.00;;
8129;SDS011;4106;52.532;13.408;2022-07-10T06:55:59;2.30;;;0.90;;
8129;SDS011;4106;52.532;13.408;2022-07-10T06:58:27;2.00;;;0.95;;
8129;SDS011;4106;52.532;13.408;2022-07-10T07:00:54;1.62;;;1.10;;
8129;SDS011;4106;52.532;13.408;2022-07-10T07:03:22;0.70;;;0.70;;
8129;SDS011;4106;52.532;13.408;2022-07-10T07:05:49;2.42;;;1.05;;
8129;SDS011;4106;52.532;13.408;2022-07-10T07:08:16;2.80;;;1.10;;
8129;SDS011;4106;52.532;13.408;2022-07-10T07:10:43;2.17;;;1.00;;
8129;SDS011;4106;52.532;13.408;2022-07-10T07:13:10;1.42;;;0.88;;
8129;SDS011;4106;52.532;13.408;2022-07-10T07:15:38;1.80;;;0.95;;
8129;SDS011;4106;52.532;13.408;2022-07-10T07:18:05;3.42;;;0.80;;
8129;SDS011;4106;52.532;13.408;2022-07-10T07:20:35;2.65;;;1.23;;
8129;SDS011;4106;52.532;13.408;2022-07-10T07:23:08;2.20;;;1.00;;
8129;SDS011;4106;52.532;13.408;2022-07-10T07:25:36;2.55;;;0.98;;
8129;SDS011;4106;52.532;13.408;2022-07-10T07:28:04;1.42;;;1.10;;
8129;SDS011;4106;52.532;13.408;2022-07-10T07:30:31;2.58;;;0.90;;
8129;SDS011;4106;52.532;13.408;2022-07-10T07:32:58;2.70;;;1.00;;
8129;SDS011;4106;52.532;13.408;2022-07-10T07:35:26;2.58;;;1.23;;
8129;SDS011;4106;52.532;13.408;2022-07-10T07:37:53;1.23;;;0.73;;
8129;SDS011;4106;52.532;13.408;2022-07-10T07:40:21;2.33;;;1.12;;
8129;SDS011;4106;52.532;13.408;2022-07-10T07:42:49;6.07;;;1.20;;
8129;SDS011;4106;52.532;13.408;2022-07-10T07:45:18;1.95;;;1.00;;
8129;SDS011;4106;52.532;13.408;2022-07-10T07:47:47;2.85;;;1.10;;
8129;SDS011;4106;52.532;13.408;2022-07-10T07:50:15;1.85;;;1.00;;
8129;SDS011;4106;52.532;13.408;2022-07-10T07:52:43;4.78;;;1.08;;
8129;SDS011;4106;52.532;13.408;2022-07-10T07:55:10;1.45;;;0.90;;
8129;SDS011;4106;52.532;13.408;2022-07-10T07:57:38;1.58;;;1.10;;
8129;SDS011;4106;52.532;13.408;2022-07-10T08:00:07;3.35;;;1.20;;
8129;SDS011;4106;52.532;13.408;2022-07-10T08:02:35;1.62;;;1.10;;
8129;SDS011;4106;52.532;13.408;2022-07-10T08:05:03;2.22;;;0.98;;
8129;SDS011;4106;52.532;13.408;2022-07-10T08:07:34;2.50;;;0.90;;
8129;SDS011;4106;52.532;13.408;2022-07-10T08:10:01;1.73;;;1.10;;
8129;SDS011;4106;52.532;13.408;2022-07-10T08:12:29;1.95;;;1.25;;
8129;SDS011;4106;52.532;13.408;2022-07-10T08:14:57;2.40;;;1.10;;
8129;SDS011;4106;52.532;13.408;2022-07-10T08:17:24;3.42;;;1.20;;
8129;SDS011;4106;52.532;13.408;2022-07-10T08:19:51;2.28;;;1.23;;
8129;SDS011;4106;52.532;13.408;2022-07-10T08:22:18;1.85;;;1.23;;
8129;SDS011;4106;52.532;13.408;2022-07-10T08:24:45;1.25;;;0.88;;
8129;SDS011;4106;52.532;13.408;2022-07-10T08:27:13;1.80;;;1.12;;
8129;SDS011;4106;52.532;13.408;2022-07-10T08:29:40;1.83;;;0.80;;
8129;SDS011;4106;52.532;13.408;2022-07-10T08:32:07;1.87;;;1.10;;
8129;SDS011;4106;52.532;13.408;2022-07-10T08:34:35;3.22;;;1.35;;
8129;SDS011;4106;52.532;13.408;2022-07-10T08:37:02;1.98;;;1.25;;
8129;SDS011;4106;52.532;13.408;2022-07-10T08:39:29;4.22;;;1.52;;
8129;SDS011;4106;52.532;13.408;2022-07-10T08:41:57;2.97;;;1.40;;
8129;SDS011;4106;52.532;13.408;2022-07-10T08:44:25;1.83;;;1.10;;
8129;SDS011;4106;52.532;13.408;2022-07-10T08:46:52;2.60;;;1.20;;
8129;SDS011;4106;52.532;13.408;2022-07-10T08:49:19;3.72;;;1.17;;
8129;SDS011;4106;52.532;13.408;2022-07-10T08:51:48;2.85;;;1.40;;
8129;SDS011;4106;52.532;13.408;2022-07-10T08:54:14;3.53;;;1.02;;
8129;SDS011;4106;52.532;13.408;2022-07-10T08:56:42;3.05;;;1.12;;
8129;SDS011;4106;52.532;13.408;2022-07-10T08:59:11;1.85;;;1.35;;
8129;SDS011;4106;52.532;13.408;2022-07-10T09:01:38;2.00;;;1.10;;
8129;SDS011;4106;52.532;13.408;2022-07-10T09:04:06;3.80;;;1.05;;
8129;SDS011;4106;52.532;13.408;2022-07-10T09:06:34;3.72;;;1.45;;
8129;SDS011;4106;52.532;13.408;2022-07-10T09:09:02;3.87;;;1.40;;
8129;SDS011;4106;52.532;13.408;2022-07-10T09:11:28;1.80;;;1.10;;
8129;SDS011;4106;52.532;13.408;2022-07-10T09:13:56;2.72;;;1.27;;
8129;SDS011;4106;52.532;13.408;2022-07-10T09:16:27;2.95;;;1.10;;
8129;SDS011;4106;52.532;13.408;2022-07-10T09:18:53;2.42;;;1.10;;
8129;SDS011;4106;52.532;13.408;2022-07-10T09:21:21;1.55;;;1.05;;
8129;SDS011;4106;52.532;13.408;2022-07-10T09:23:49;1.15;;;1.00;;
8129;SDS011;4106;52.532;13.408;2022-07-10T09:26:17;2.45;;;1.30;;
8129;SDS011;4106;52.532;13.408;2022-07-10T09:28:44;5.78;;;1.02;;
8129;SDS011;4106;52.532;13.408;2022-07-10T09:31:11;8.80;;;1.40;;
8129;SDS011;4106;52.532;13.408;2022-07-10T09:33:39;2.65;;;1.20;;
8129;SDS011;4106;52.532;13.408;2022-07-10T09:36:08;2.17;;;1.20;;
8129;SDS011;4106;52.532;13.408;2022-07-10T09:41:23;2.12;;;1.30;;
8129;SDS011;4106;52.532;13.408;2022-07-10T09:43:56;2.40;;;1.30;;
8129;SDS011;4106;52.532;13.408;2022-07-10T09:46:25;4.53;;;1.50;;
8129;SDS011;4106;52.532;13.408;2022-07-10T09:49:27;3.25;;;1.15;;
8129;SDS011;4106;52.532;13.408;2022-07-10T09:51:38;3.78;;;1.23;;
8129;SDS011;4106;52.532;13.408;2022-07-10T09:54:06;2.72;;;1.30;;
8129;SDS011;4106;52.532;13.408;2022-07-10T09:56:33;5.40;;;1.27;;
8129;SDS011;4106;52.532;13.408;2022-07-10T09:59:01;7.95;;;1.25;;
8129;SDS011;4106;52.532;13.408;2022-07-10T10:01:29;5.28;;;1.52;;
8129;SDS011;4106;52.532;13.408;2022-07-10T10:03:57;4.35;;;1.58;;
8129;SDS011;4106;52.532;13.408;2022-07-10T10:06:23;2.67;;;1.73;;
8129;SDS011;4106;52.532;13.408;2022-07-10T10:08:59;8.45;;;2.17;;
8129;SDS011;4106;52.532;13.408;2022-07-10T10:11:43;5.35;;;2.22;;
8129;SDS011;4106;52.532;13.408;2022-07-10T10:14:09;5.32;;;2.70;;
8129;SDS011;4106;52.532;13.408;2022-07-10T10:16:36;3.67;;;2.10;;
8129;SDS011;4106;52.532;13.408;2022-07-10T10:19:03;3.37;;;1.60;;
8129;SDS011;4106;52.532;13.408;2022-07-10T10:21:37;3.10;;;1.75;;
8129;SDS011;4106;52.532;13.408;2022-07-10T10:24:05;4.18;;;1.77;;
8129;SDS011;4106;52.532;13.408;2022-07-10T10:26:32;4.95;;;2.05;;
8129;SDS011;4106;52.532;13.408;2022-07-10T10:29:00;5.20;;;1.80;;
8129;SDS011;4106;52.532;13.408;2022-07-10T10:31:28;4.12;;;1.70;;
8129;SDS011;4106;52.532;13.408;2022-07-10T10:33:54;3.72;;;1.80;;
8129;SDS011;4106;52.532;13.408;2022-07-10T10:39:15;4.78;;;1.48;;
8129;SDS011;4106;52.532;13.408;2022-07-10T10:41:46;4.35;;;1.42;;
8129;SDS011;4106;52.532;13.408;2022-07-10T10:44:18;4.00;;;1.55;;
8129;SDS011;4106;52.532;13.408;2022-07-10T10:46:57;3.53;;;1.45;;
8129;SDS011;4106;52.532;13.408;2022-07-10T10:49:46;4.95;;;1.70;;
8129;SDS011;4106;52.532;13.408;2022-07-10T10:51:56;2.87;;;1.70;;
8129;SDS011;4106;52.532;13.408;2022-07-10T10:54:30;1.87;;;1.30;;
8129;SDS011;4106;52.532;13.408;2022-07-10T11:02:44;12.82;;;2.03;;
8129;SDS011;4106;52.532;13.408;2022-07-10T11:07:57;129.38;;;25.10;;
8129;SDS011;4106;52.532;13.408;2022-07-10T11:10:33;150.55;;;31.48;;
8129;SDS011;4106;52.532;13.408;2022-07-10T11:13:06;140.80;;;29.15;;
8129;SDS011;4106;52.532;13.408;2022-07-10T11:15:34;130.32;;;26.73;;
8129;SDS011;4106;52.532;13.408;2022-07-10T11:18:02;102.80;;;21.42;;
8129;SDS011;4106;52.532;13.408;2022-07-10T11:20:32;68.57;;;16.40;;
8129;SDS011;4106;52.532;13.408;2022-07-10T11:23:17;74.57;;;15.15;;
8129;SDS011;4106;52.532;13.408;2022-07-10T11:25:52;74.40;;;15.95;;
8129;SDS011;4106;52.532;13.408;2022-07-10T11:28:54;51.72;;;14.25;;
8129;SDS011;4106;52.532;13.408;2022-07-10T11:31:22;53.67;;;13.00;;
8129;SDS011;4106;52.532;13.408;2022-07-10T11:33:49;56.15;;;13.55;;
8129;SDS011;4106;52.532;13.408;2022-07-10T11:36:18;51.28;;;11.40;;
8129;SDS011;4106;52.532;13.408;2022-07-10T11:38:45;27.62;;;6.28;;
8129;SDS011;4106;52.532;13.408;2022-07-10T11:41:14;17.80;;;3.95;;
8129;SDS011;4106;52.532;13.408;2022-07-10T11:43:45;16.58;;;3.40;;
8129;SDS011;4106;52.532;13.408;2022-07-10T11:46:12;17.85;;;4.45;;
8129;SDS011;4106;52.532;13.408;2022-07-10T11:48:40;12.93;;;3.70;;
8129;SDS011;4106;52.532;13.408;2022-07-10T11:56:18;123.13;;;20.73;;
8129;SDS011;4106;52.532;13.408;2022-07-10T12:01:21;111.05;;;22.80;;
8129;SDS011;4106;52.532;13.408;2022-07-10T12:03:53;107.78;;;21.60;;
8129;SDS011;4106;52.532;13.408;2022-07-10T12:06:21;100.80;;;21.12;;
8129;SDS011;4106;52.532;13.408;2022-07-10T12:08:49;107.35;;;18.42;;
8129;SDS011;4106;52.532;13.408;2022-07-10T12:11:17;75.30;;;16.73;;
8129;SDS011;4106;52.532;13.408;2022-07-10T12:13:45;75.70;;;15.00;;
8129;SDS011;4106;52.532;13.408;2022-07-10T12:16:12;85.05;;;15.23;;
8129;SDS011;4106;52.532;13.408;2022-07-10T12:18:40;50.25;;;11.80;;
8129;SDS011;4106;52.532;13.408;2022-07-10T12:21:09;52.80;;;12.65;;
8129;SDS011;4106;52.532;13.408;2022-07-10T12:23:36;42.05;;;9.85;;
8129;SDS011;4106;52.532;13.408;2022-07-10T12:26:04;28.67;;;6.47;;
8129;SDS011;4106;52.532;13.408;2022-07-10T12:28:31;18.67;;;6.12;;
8129;SDS011;4106;52.532;13.408;2022-07-10T12:30:58;22.13;;;5.50;;
8129;SDS011;4106;52.532;13.408;2022-07-10T12:33:25;21.55;;;5.80;;
8129;SDS011;4106;52.532;13.408;2022-07-10T12:35:54;16.27;;;4.32;;
8129;SDS011;4106;52.532;13.408;2022-07-10T12:38:21;10.68;;;3.53;;
8129;SDS011;4106;52.532;13.408;2022-07-10T12:40:48;10.95;;;3.50;;
8129;SDS011;4106;52.532;13.408;2022-07-10T12:48:39;8.85;;;3.15;;
8129;SDS011;4106;52.532;13.408;2022-07-10T12:53:53;6.82;;;2.17;;
8129;SDS011;4106;52.532;13.408;2022-07-10T12:56:28;10.48;;;2.47;;
8129;SDS011;4106;52.532;13.408;2022-07-10T12:58:55;6.20;;;1.95;;
8129;SDS011;4106;52.532;13.408;2022-07-10T13:01:22;12.27;;;2.40;;
8129;SDS011;4106;52.532;13.408;2022-07-10T13:03:56;10.70;;;2.30;;
8129;SDS011;4106;52.532;13.408;2022-07-10T13:08:51;7.03;;;2.45;;
8129;SDS011;4106;52.532;13.408;2022-07-10T13:11:18;8.82;;;2.72;;
8129;SDS011;4106;52.532;13.408;2022-07-10T13:13:46;5.60;;;2.25;;
8129;SDS011;4106;52.532;13.408;2022-07-10T13:16:13;5.32;;;1.80;;
8129;SDS011;4106;52.532;13.408;2022-07-10T13:18:41;6.60;;;2.10;;
8129;SDS011;4106;52.532;13.408;2022-07-10T13:21:09;5.37;;;1.80;;
8129;SDS011;4106;52.532;13.408;2022-07-10T13:23:36;4.15;;;1.70;;
8129;SDS011;4106;52.532;13.408;2022-07-10T13:26:05;8.43;;;2.00;;
8129;SDS011;4106;52.532;13.408;2022-07-10T13:28:32;8.10;;;1.77;;
8129;SDS011;4106;52.532;13.408;2022-07-10T13:31:00;5.35;;;1.75;;
8129;SDS011;4106;52.532;13.408;2022-07-10T13:33:28;4.03;;;1.50;;
8129;SDS011;4106;52.532;13.408;2022-07-10T13:35:55;6.15;;;1.55;;
8129;SDS011;4106;52.532;13.408;2022-07-10T13:38:23;5.05;;;1.40;;
8129;SDS011;4106;52.532;13.408;2022-07-10T13:40:50;4.93;;;1.48;;
8129;SDS011;4106;52.532;13.408;2022-07-10T13:43:17;3.12;;;1.37;;
8129;SDS011;4106;52.532;13.408;2022-07-10T13:45:45;6.30;;;1.77;;
8129;SDS011;4106;52.532;13.408;2022-07-10T13:48:13;3.65;;;1.58;;
8129;SDS011;4106;52.532;13.408;2022-07-10T13:50:42;5.43;;;1.67;;
8129;SDS011;4106;52.532;13.408;2022-07-10T13:53:09;3.58;;;1.42;;
8129;SDS011;4106;52.532;13.408;2022-07-10T13:55:36;1.77;;;1.23;;
8129;SDS011;4106;52.532;13.408;2022-07-10T13:58:03;3.45;;;1.33;;
8129;SDS011;4106;52.532;13.408;2022-07-10T14:00:30;3.03;;;1.55;;
8129;SDS011;4106;52.532;13.408;2022-07-10T14:02:57;1.65;;;1.02;;
8129;SDS011;4106;52.532;13.408;2022-07-10T14:05:26;3.28;;;1.15;;
8129;SDS011;4106;52.532;13.408;2022-07-10T14:07:53;2.45;;;1.30;;
8129;SDS011;4106;52.532;13.408;2022-07-10T14:10:20;3.35;;;1.12;;
8129;SDS011;4106;52.532;13.408;2022-07-10T14:12:48;1.27;;;1.08;;
8129;SDS011;4106;52.532;13.408;2022-07-10T14:15:15;2.50;;;1.10;;
8129;SDS011;4106;52.532;13.408;2022-07-10T14:17:43;3.10;;;1.30;;
8129;SDS011;4106;52.532;13.408;2022-07-10T14:20:11;5.25;;;1.48;;
8129;SDS011;4106;52.532;13.408;2022-07-10T14:22:39;3.97;;;1.60;;
8129;SDS011;4106;52.532;13.408;2022-07-10T14:25:07;2.55;;;1.25;;
8129;SDS011;4106;52.532;13.408;2022-07-10T14:27:35;3.22;;;1.45;;
8129;SDS011;4106;52.532;13.408;2022-07-10T14:30:03;2.72;;;1.10;;
8129;SDS011;4106;52.532;13.408;2022-07-10T14:32:31;2.55;;;1.10;;
8129;SDS011;4106;52.532;13.408;2022-07-10T14:34:59;2.40;;;1.12;;
8129;SDS011;4106;52.532;13.408;2022-07-10T14:37:26;4.28;;;1.17;;
8129;SDS011;4106;52.532;13.408;2022-07-10T14:39:54;2.25;;;1.10;;
8129;SDS011;4106;52.532;13.408;2022-07-10T14:42:21;3.35;;;1.27;;
8129;SDS011;4106;52.532;13.408;2022-07-10T14:44:49;3.12;;;1.10;;
8129;SDS011;4106;52.532;13.408;2022-07-10T14:47:17;2.83;;;1.40;;
8129;SDS011;4106;52.532;13.408;2022-07-10T14:49:45;1.42;;;1.00;;
8129;SDS011;4106;52.532;13.408;2022-07-10T14:52:13;2.87;;;1.10;;
8129;SDS011;4106;52.532;13.408;2022-07-10T14:54:40;2.70;;;1.25;;
8129;SDS011;4106;52.532;13.408;2022-07-10T14:57:07;3.75;;;1.55;;
8129;SDS011;4106;52.532;13.408;2022-07-10T14:59:34;2.28;;;1.00;;
8129;SDS011;4106;52.532;13.408;2022-07-10T15:02:02;2.20;;;1.08;;
8129;SDS011;4106;52.532;13.408;2022-07-10T15:04:29;3.85;;;1.30;;
8129;SDS011;4106;52.532;13.408;2022-07-10T15:06:56;2.25;;;1.20;;
8129;SDS011;4106;52.532;13.408;2022-07-10T15:09:23;2.50;;;1.00;;
8129;SDS011;4106;52.532;13.408;2022-07-10T15:11:51;1.65;;;1.10;;
8129;SDS011;4106;52.532;13.408;2022-07-10T15:14:18;2.55;;;1.20;;
8129;SDS011;4106;52.532;13.408;2022-07-10T15:16:45;2.10;;;0.80;;
8129;SDS011;4106;52.532;13.408;2022-07-10T15:19:12;0.98;;;0.77;;
8129;SDS011;4106;52.532;13.408;2022-07-10T15:21:39;1.70;;;0.98;;
8129;SDS011;4106;52.532;13.408;2022-07-10T15:24:07;1.92;;;1.20;;
8129;SDS011;4106;52.532;13.408;2022-07-10T15:26:34;2.65;;;1.98;;
8129;SDS011;4106;52.532;13.408;2022-07-10T15:29:02;2.28;;;1.48;;
8129;SDS011;4106;52.532;13.408;2022-07-10T15:31:30;2.03;;;1.20;;
8129;SDS011;4106;52.532;13.408;2022-07-10T15:33:58;2.72;;;1.58;;